Time;durP1;ratioP1;P1;durP2;ratioP2;P2;SDS_P1;SDS_P2;PMS_P1;PMS_P2;Temp;Humidity;BMP_temperature;BMP_pressure;BME280_temperature;BME280_humidity;BME280_pressure;Samples;Min_cycle;Max_cycle;Signal;HPM_P1;HPM_P2
2021/09/09 00:01:09;;;;;;;11.05;5.95;;;22.60;72.00;;;;;;5046831;28;20496;-71
2021/09/09 00:03:35;;;;;;;13.57;6.28;;;22.50;71.90;;;;;;5045825;28;20495;-72
2021/09/09 00:06:02;;;;;;;9.73;5.75;;;22.50;71.90;;;;;;5034728;28;20178;-72
2021/09/09 00:08:28;;;;;;;10.25;6.10;;;22.50;71.90;;;;;;5033843;28;20114;-72
2021/09/09 00:10:54;;;;;;;12.38;5.70;;;22.50;71.80;;;;;;5042510;28;20507;-72
2021/09/09 00:13:21;;;;;;;10.60;5.80;;;22.50;71.80;;;;;;5045205;28;20472;-72
2021/09/09 00:15:47;;;;;;;11.60;6.68;;;22.40;71.70;;;;;;5037223;28;20032;-72
2021/09/09 00:18:13;;;;;;;8.90;5.80;;;22.40;71.80;;;;;;5052200;28;20136;-72
2021/09/09 00:20:40;;;;;;;12.70;6.38;;;22.40;71.80;;;;;;5051870;28;20481;-72
2021/09/09 00:23:08;;;;;;;9.77;6.53;;;22.30;71.80;;;;;;5051738;28;20143;-72
2021/09/09 00:25:36;;;;;;;13.10;6.35;;;22.40;72.00;;;;;;5047383;28;20531;-72
2021/09/09 00:28:02;;;;;;;11.98;6.05;;;22.30;72.00;;;;;;5033266;28;20029;-72
2021/09/09 00:30:29;;;;;;;21.88;7.55;;;22.30;72.20;;;;;;5034834;28;20045;-71
2021/09/09 00:32:55;;;;;;;10.45;5.90;;;22.40;72.30;;;;;;5044400;28;20508;-72
2021/09/09 00:35:21;;;;;;;10.20;6.47;;;22.30;72.30;;;;;;5033960;28;20550;-72
2021/09/09 00:37:46;;;;;;;9.75;6.05;;;22.30;72.30;;;;;;5043784;28;20025;-72
2021/09/09 00:40:13;;;;;;;15.00;6.55;;;22.30;72.40;;;;;;5030471;28;20033;-72
2021/09/09 00:42:41;;;;;;;12.02;6.75;;;22.20;72.40;;;;;;5037270;28;20033;-72
2021/09/09 00:45:07;;;;;;;14.77;6.55;;;22.20;72.50;;;;;;5037726;28;20037;-71
2021/09/09 00:47:33;;;;;;;13.57;7.18;;;22.20;72.50;;;;;;5036702;28;20044;-71
2021/09/09 00:49:58;;;;;;;18.38;6.65;;;22.20;72.50;;;;;;5039756;28;20396;-72
2021/09/09 00:52:24;;;;;;;16.60;6.90;;;22.20;72.70;;;;;;5044177;28;20060;-72
2021/09/09 00:54:50;;;;;;;10.65;6.50;;;22.20;72.70;;;;;;5037621;28;20067;-72
2021/09/09 00:57:17;;;;;;;11.10;7.15;;;22.10;72.70;;;;;;5037643;28;20070;-72
2021/09/09 00:59:44;;;;;;;14.82;6.90;;;22.10;72.80;;;;;;5038634;28;20026;-72
2021/09/09 01:02:11;;;;;;;17.08;6.70;;;22.10;73.00;;;;;;5039307;28;20381;-72
2021/09/09 01:04:37;;;;;;;10.90;6.50;;;22.10;73.10;;;;;;5038652;28;20044;-72
2021/09/09 01:07:03;;;;;;;13.80;7.53;;;22.00;73.20;;;;;;5040204;28;20492;-72
2021/09/09 01:09:29;;;;;;;13.68;7.63;;;22.10;73.40;;;;;;5039710;28;20055;-71
2021/09/09 01:11:54;;;;;;;15.77;7.53;;;22.00;73.50;;;;;;5037362;28;20044;-72
2021/09/09 01:14:21;;;;;;;14.77;7.97;;;22.00;73.60;;;;;;5034227;28;20026;-72
2021/09/09 01:16:47;;;;;;;11.43;7.38;;;21.90;73.70;;;;;;5037458;28;20032;-71
2021/09/09 01:19:14;;;;;;;12.30;7.47;;;21.90;73.90;;;;;;5034539;28;20462;-72
2021/09/09 01:21:41;;;;;;;15.52;7.57;;;21.90;74.10;;;;;;5032881;28;20462;-72
2021/09/09 01:24:14;;;;;;;15.02;8.07;;;21.80;74.20;;;;;;5037803;28;20025;-70
2021/09/09 01:26:51;;;;;;;13.10;7.32;;;21.80;74.40;;;;;;5033113;28;20043;-71
2021/09/09 01:29:16;;;;;;;14.02;7.10;;;21.80;74.40;;;;;;5038606;28;20384;-71
2021/09/09 01:31:42;;;;;;;15.35;7.65;;;21.80;74.50;;;;;;5046734;28;20029;-70
2021/09/09 01:34:08;;;;;;;10.93;7.68;;;21.80;74.70;;;;;;5041131;28;20044;-72
2021/09/09 01:36:34;;;;;;;15.48;7.15;;;21.80;74.80;;;;;;5032872;28;20041;-71
2021/09/09 01:38:59;;;;;;;12.93;7.78;;;21.80;74.90;;;;;;5041314;28;20108;-71
2021/09/09 01:41:25;;;;;;;13.73;7.63;;;21.70;75.00;;;;;;5033003;28;20451;-71
2021/09/09 01:43:51;;;;;;;12.10;7.55;;;21.70;75.00;;;;;;5031942;28;20033;-71
2021/09/09 01:46:16;;;;;;;17.30;7.90;;;21.60;75.10;;;;;;5032305;28;20060;-71
2021/09/09 01:48:42;;;;;;;12.45;7.07;;;21.70;75.20;;;;;;5033550;28;20094;-71
2021/09/09 01:51:08;;;;;;;15.70;8.23;;;21.70;75.30;;;;;;5038979;28;20048;-71
2021/09/09 01:53:33;;;;;;;12.55;7.63;;;21.60;75.30;;;;;;5039177;28;20029;-71
2021/09/09 01:55:59;;;;;;;13.57;8.25;;;21.60;75.30;;;;;;5042595;28;20086;-71
2021/09/09 01:58:25;;;;;;;17.13;9.07;;;21.60;75.30;;;;;;5042620;28;20021;-71
2021/09/09 02:00:51;;;;;;;12.75;7.47;;;21.60;75.40;;;;;;5047991;28;20037;-71
2021/09/09 02:03:16;;;;;;;18.83;7.97;;;21.50;75.30;;;;;;5048364;28;20164;-71
2021/09/09 02:05:42;;;;;;;15.55;8.43;;;21.60;75.40;;;;;;5040890;28;20040;-71
2021/09/09 02:08:08;;;;;;;20.17;8.70;;;21.60;75.40;;;;;;5043166;28;20026;-71
2021/09/09 02:10:33;;;;;;;15.98;8.32;;;21.50;75.40;;;;;;5036537;28;20037;-71
2021/09/09 02:12:59;;;;;;;12.77;8.18;;;21.50;75.40;;;;;;5036115;28;20053;-71
2021/09/09 02:15:25;;;;;;;17.73;8.43;;;21.50;75.40;;;;;;5047459;28;20029;-71
2021/09/09 02:17:51;;;;;;;14.65;8.27;;;21.40;75.40;;;;;;5049053;28;20028;-71
2021/09/09 02:20:17;;;;;;;19.27;8.75;;;21.50;75.40;;;;;;5048338;28;20558;-71
2021/09/09 02:22:43;;;;;;;14.70;8.70;;;21.40;75.30;;;;;;5047216;28;20416;-71
2021/09/09 02:25:10;;;;;;;13.13;8.13;;;21.40;75.30;;;;;;5037461;28;20429;-71
2021/09/09 02:27:35;;;;;;;14.52;9.00;;;21.40;75.20;;;;;;5036404;28;20030;-71
2021/09/09 02:30:01;;;;;;;12.27;7.90;;;21.40;75.20;;;;;;5038094;28;20045;-71
2021/09/09 02:32:27;;;;;;;12.48;8.00;;;21.40;75.20;;;;;;5037211;28;20017;-71
2021/09/09 02:34:53;;;;;;;13.57;8.65;;;21.30;75.10;;;;;;5037214;28;20454;-71
2021/09/09 02:37:18;;;;;;;16.23;8.52;;;21.40;75.10;;;;;;5043280;28;20392;-71
2021/09/09 02:39:47;;;;;;;12.80;7.55;;;21.30;75.10;;;;;;5048003;28;20025;-71
2021/09/09 02:42:14;;;;;;;17.50;8.52;;;21.30;75.10;;;;;;5036306;28;20108;-71
2021/09/09 02:44:40;;;;;;;14.32;8.45;;;21.30;75.10;;;;;;5042074;28;20025;-71
2021/09/09 02:47:05;;;;;;;18.42;9.48;;;21.30;75.10;;;;;;5045773;28;20496;-71
2021/09/09 02:49:31;;;;;;;19.52;8.55;;;21.20;74.90;;;;;;5045011;28;20534;-71
2021/09/09 02:51:57;;;;;;;11.40;8.27;;;21.20;74.90;;;;;;5038009;28;20041;-71
2021/09/09 02:54:23;;;;;;;18.27;8.15;;;21.20;74.90;;;;;;5038928;28;20037;-71
2021/09/09 02:56:48;;;;;;;13.68;8.30;;;21.30;74.90;;;;;;5045418;28;20013;-71
2021/09/09 02:59:14;;;;;;;18.58;9.13;;;21.30;75.00;;;;;;5040550;28;20030;-71
2021/09/09 03:01:40;;;;;;;12.90;8.50;;;21.30;74.90;;;;;;5043709;28;20080;-71
2021/09/09 03:04:06;;;;;;;17.58;8.40;;;21.20;74.80;;;;;;5044420;28;20017;-71
2021/09/09 03:06:33;;;;;;;15.90;8.18;;;21.20;74.80;;;;;;5047008;28;20120;-71
2021/09/09 03:08:59;;;;;;;15.45;8.63;;;21.20;74.80;;;;;;5040560;28;20029;-71
2021/09/09 03:11:25;;;;;;;13.00;8.32;;;21.20;74.80;;;;;;5051292;28;20041;-71
2021/09/09 03:13:50;;;;;;;15.13;9.18;;;21.10;75.10;;;;;;5041574;28;20021;-71
2021/09/09 03:16:16;;;;;;;13.50;8.63;;;21.10;74.80;;;;;;5042930;28;20035;-71
2021/09/09 03:18:42;;;;;;;15.77;9.07;;;21.10;74.80;;;;;;5035140;28;20037;-71
2021/09/09 03:21:07;;;;;;;15.73;8.85;;;21.10;74.80;;;;;;5046857;28;20119;-71
2021/09/09 03:23:33;;;;;;;16.45;8.57;;;21.10;74.80;;;;;;5041949;28;20039;-71
2021/09/09 03:25:59;;;;;;;14.77;9.23;;;21.10;74.80;;;;;;5035568;28;20017;-71
2021/09/09 03:28:25;;;;;;;13.73;8.80;;;21.10;74.90;;;;;;5045341;28;20445;-71
2021/09/09 03:30:50;;;;;;;18.83;9.13;;;21.10;75.00;;;;;;5045874;28;20045;-71
2021/09/09 03:33:16;;;;;;;16.08;9.60;;;21.00;74.90;;;;;;5046218;28;20029;-71
2021/09/09 03:35:41;;;;;;;18.23;8.82;;;21.00;75.00;;;;;;5046372;28;20036;-71
2021/09/09 03:38:09;;;;;;;16.33;9.35;;;21.00;75.10;;;;;;5047890;28;20423;-71
2021/09/09 03:40:35;;;;;;;13.95;9.10;;;21.00;75.10;;;;;;5043944;28;20036;-70
2021/09/09 03:43:01;;;;;;;17.25;9.98;;;21.00;75.30;;;;;;5049096;28;20034;-70
2021/09/09 03:45:27;;;;;;;16.02;8.80;;;21.00;75.40;;;;;;5050379;28;20075;-70
2021/09/09 03:47:52;;;;;;;15.52;9.27;;;20.90;75.40;;;;;;5043871;28;20370;-70
2021/09/09 03:50:18;;;;;;;12.82;8.88;;;20.90;75.50;;;;;;5041419;28;20412;-69
2021/09/09 03:52:44;;;;;;;19.52;10.07;;;20.90;75.50;;;;;;5044075;28;20107;-74
2021/09/09 03:55:10;;;;;;;17.17;9.50;;;20.90;75.70;;;;;;5045742;28;20080;-71
2021/09/09 03:57:35;;;;;;;17.25;9.75;;;20.90;75.70;;;;;;5041199;28;20025;-71
2021/09/09 04:00:02;;;;;;;14.52;8.85;;;20.90;75.70;;;;;;5034237;28;20044;-71
2021/09/09 04:02:29;;;;;;;17.98;9.00;;;20.90;76.40;;;;;;5041698;28;20112;-71
2021/09/09 04:04:55;;;;;;;19.40;10.27;;;20.90;75.90;;;;;;5044888;28;20106;-71
2021/09/09 04:07:21;;;;;;;16.95;9.27;;;20.80;75.90;;;;;;5048514;28;20029;-71
2021/09/09 04:09:46;;;;;;;18.10;10.52;;;20.80;76.10;;;;;;5039788;28;20029;-71
2021/09/09 04:12:12;;;;;;;16.17;9.90;;;20.80;76.20;;;;;;5036555;28;20057;-71
2021/09/09 04:14:37;;;;;;;14.45;7.88;;;20.70;76.10;;;;;;5033347;28;20033;-72
2021/09/09 04:17:03;;;;;;;17.30;10.35;;;20.70;76.60;;;;;;5044864;28;20052;-72
2021/09/09 04:19:29;;;;;;;17.33;9.75;;;20.80;76.60;;;;;;5051942;28;20111;-71
2021/09/09 04:21:55;;;;;;;17.85;10.63;;;20.70;76.40;;;;;;5047235;28;20021;-71
2021/09/09 04:24:21;;;;;;;15.48;10.07;;;20.70;76.40;;;;;;5039946;28;20033;-71
2021/09/09 04:26:47;;;;;;;19.77;10.73;;;20.70;76.30;;;;;;5040583;28;20029;-71
2021/09/09 04:29:12;;;;;;;17.13;10.38;;;20.70;76.30;;;;;;5049493;28;20116;-71
2021/09/09 04:31:38;;;;;;;14.18;9.57;;;20.70;76.30;;;;;;5052033;28;20111;-71
2021/09/09 04:34:04;;;;;;;16.92;10.73;;;20.70;76.20;;;;;;5050451;28;20064;-71
2021/09/09 04:36:30;;;;;;;22.10;10.77;;;20.60;76.20;;;;;;5041442;28;20079;-70
2021/09/09 04:38:56;;;;;;;14.63;8.40;;;20.70;76.20;;;;;;5039940;28;20428;-72
2021/09/09 04:41:21;;;;;;;13.88;8.32;;;20.60;76.90;;;;;;5043097;28;20133;-73
2021/09/09 04:43:47;;;;;;;12.93;7.55;;;20.60;77.20;;;;;;5038868;28;20029;-72
2021/09/09 04:46:13;;;;;;;12.98;7.10;;;20.60;77.50;;;;;;5035511;28;20033;-72
2021/09/09 04:48:38;;;;;;;17.05;10.40;;;20.60;78.00;;;;;;5033193;28;20566;-72
2021/09/09 04:51:04;;;;;;;19.77;10.70;;;20.60;77.60;;;;;;5037360;28;20551;-73
2021/09/09 04:53:30;;;;;;;18.00;9.80;;;20.60;77.30;;;;;;5032077;28;20072;-73
2021/09/09 04:55:55;;;;;;;18.98;9.48;;;20.50;77.20;;;;;;5031895;28;20029;-72
2021/09/09 04:58:22;;;;;;;16.58;9.95;;;20.50;77.10;;;;;;5032630;28;20060;-72
2021/09/09 05:00:47;;;;;;;19.63;10.32;;;20.60;77.10;;;;;;5032131;28;20151;-72
2021/09/09 05:03:13;;;;;;;19.02;10.38;;;20.60;77.10;;;;;;5034702;28;20471;-72
2021/09/09 05:05:39;;;;;;;21.75;9.98;;;20.50;77.00;;;;;;5037409;28;20544;-73
2021/09/09 05:08:05;;;;;;;26.80;10.93;;;20.50;76.90;;;;;;5035531;28;20055;-71
2021/09/09 05:10:31;;;;;;;18.98;10.63;;;20.50;76.90;;;;;;5035284;28;20068;-73
2021/09/09 05:12:56;;;;;;;16.35;10.15;;;20.50;76.90;;;;;;5032892;28;20045;-72
2021/09/09 05:15:22;;;;;;;15.38;9.52;;;20.50;77.00;;;;;;5033914;28;20112;-72
2021/09/09 05:17:47;;;;;;;19.13;9.80;;;20.50;76.90;;;;;;5031124;28;20026;-72
2021/09/09 05:20:13;;;;;;;22.27;9.77;;;20.50;77.00;;;;;;5031606;28;20548;-72
2021/09/09 05:22:39;;;;;;;18.15;10.00;;;20.50;76.90;;;;;;5043542;28;20469;-72
2021/09/09 05:25:05;;;;;;;19.23;10.48;;;20.50;77.00;;;;;;5042107;28;20417;-72
2021/09/09 05:27:31;;;;;;;14.75;9.27;;;20.50;77.10;;;;;;5044670;28;20033;-72
2021/09/09 05:29:57;;;;;;;20.75;9.85;;;20.50;77.10;;;;;;5037151;28;20049;-72
2021/09/09 05:32:22;;;;;;;20.95;10.48;;;20.50;77.10;;;;;;5037466;28;20098;-72
2021/09/09 05:34:48;;;;;;;16.73;9.95;;;20.50;77.20;;;;;;5034592;28;20030;-72
2021/09/09 05:37:14;;;;;;;15.43;9.63;;;20.50;77.20;;;;;;5048713;28;20116;-72
2021/09/09 05:39:39;;;;;;;19.67;10.65;;;20.40;77.20;;;;;;5048501;28;20036;-72
2021/09/09 05:42:05;;;;;;;21.90;11.68;;;20.40;77.30;;;;;;5039806;28;20112;-72
2021/09/09 05:44:31;;;;;;;19.55;10.30;;;20.40;77.20;;;;;;5036530;28;20039;-72
2021/09/09 05:46:57;;;;;;;22.20;10.48;;;20.50;77.40;;;;;;5036852;28;20041;-72
2021/09/09 05:49:22;;;;;;;22.17;11.07;;;20.40;77.40;;;;;;5036494;28;20052;-72
2021/09/09 05:51:48;;;;;;;18.23;9.40;;;20.40;77.60;;;;;;5037078;28;20025;-72
2021/09/09 05:54:13;;;;;;;17.83;9.82;;;20.40;77.90;;;;;;5036787;28;20397;-72
2021/09/09 05:56:39;;;;;;;18.60;9.80;;;20.40;78.10;;;;;;5039138;28;20032;-71
2021/09/09 05:59:05;;;;;;;23.52;10.05;;;20.40;78.20;;;;;;5051680;28;20060;-72
2021/09/09 06:01:31;;;;;;;16.90;9.75;;;20.40;78.20;;;;;;5040776;28;20025;-72
2021/09/09 06:03:57;;;;;;;18.55;9.23;;;20.40;78.20;;;;;;5035855;28;20033;-72
2021/09/09 06:06:25;;;;;;;25.92;10.88;;;20.40;78.30;;;;;;5036175;28;20037;-72
2021/09/09 06:08:51;;;;;;;15.95;10.60;;;20.40;78.30;;;;;;5034691;28;20026;-72
2021/09/09 06:11:17;;;;;;;22.85;11.20;;;20.40;78.40;;;;;;5034224;28;20049;-71
2021/09/09 06:13:42;;;;;;;18.55;10.68;;;20.40;78.30;;;;;;5036779;28;20083;-72
2021/09/09 06:16:08;;;;;;;18.90;9.68;;;20.40;78.30;;;;;;5035337;28;20040;-72
2021/09/09 06:18:35;;;;;;;19.92;11.00;;;20.40;78.40;;;;;;5034673;28;20026;-72
2021/09/09 06:21:01;;;;;;;15.73;9.82;;;20.50;78.40;;;;;;5034373;28;20034;-73
2021/09/09 06:23:27;;;;;;;21.05;12.05;;;20.50;78.40;;;;;;5042585;28;20029;-71
2021/09/09 06:25:53;;;;;;;23.27;11.45;;;20.50;78.40;;;;;;5043775;28;20056;-71
2021/09/09 06:28:19;;;;;;;34.70;12.95;;;20.50;78.20;;;;;;5039975;28;20546;-71
2021/09/09 06:30:44;;;;;;;20.45;12.75;;;20.50;78.20;;;;;;5037580;28;20120;-71
2021/09/09 06:33:10;;;;;;;22.88;13.30;;;20.50;78.30;;;;;;5036063;28;20026;-70
2021/09/09 06:35:38;;;;;;;23.38;13.18;;;20.50;78.30;;;;;;5036930;28;20092;-71
2021/09/09 06:38:03;;;;;;;21.95;13.27;;;20.50;78.40;;;;;;5037612;28;20068;-71
2021/09/09 06:40:29;;;;;;;21.27;12.82;;;20.60;78.50;;;;;;5044678;28;20072;-71
2021/09/09 06:42:55;;;;;;;20.50;12.60;;;20.50;78.50;;;;;;5050380;28;20064;-71
2021/09/09 06:45:21;;;;;;;21.05;12.10;;;20.50;78.50;;;;;;5044032;28;20042;-71
2021/09/09 06:47:46;;;;;;;23.80;12.30;;;20.50;78.50;;;;;;5041984;28;20095;-71
2021/09/09 06:50:12;;;;;;;21.77;12.73;;;20.60;78.50;;;;;;5040973;28;20041;-71
2021/09/09 06:52:38;;;;;;;26.40;12.35;;;20.60;78.50;;;;;;5046690;28;20107;-71
2021/09/09 06:55:04;;;;;;;19.83;13.40;;;20.60;78.50;;;;;;5043847;28;20037;-71
2021/09/09 06:57:29;;;;;;;25.58;12.88;;;20.60;78.60;;;;;;5042337;28;20482;-71
2021/09/09 06:59:55;;;;;;;26.98;13.15;;;20.60;78.50;;;;;;5041819;28;20017;-71
2021/09/09 07:02:21;;;;;;;20.33;12.20;;;20.60;78.80;;;;;;5035032;28;20028;-71
2021/09/09 07:04:46;;;;;;;20.27;12.90;;;20.60;78.90;;;;;;5035481;28;20025;-71
2021/09/09 07:07:12;;;;;;;24.90;14.00;;;20.70;79.00;;;;;;5035659;28;20044;-71
2021/09/09 07:09:37;;;;;;;24.83;14.32;;;20.70;79.20;;;;;;5045697;28;20040;-71
2021/09/09 07:12:03;;;;;;;27.73;12.75;;;20.70;79.30;;;;;;5038311;28;20480;-71
2021/09/09 07:14:29;;;;;;;19.58;13.48;;;20.70;79.30;;;;;;5053656;28;20031;-71
2021/09/09 07:16:55;;;;;;;23.92;14.13;;;20.70;79.30;;;;;;5051011;28;20388;-71
2021/09/09 07:19:21;;;;;;;23.58;11.75;;;20.80;79.50;;;;;;5053700;28;20491;-74
2021/09/09 07:21:50;;;;;;;24.48;14.07;;;20.80;79.60;;;;;;5038938;28;20495;-72
2021/09/09 07:24:17;;;;;;;21.23;11.23;;;20.90;79.90;;;;;;5033733;28;20485;-72
2021/09/09 07:26:47;;;;;;;21.48;13.40;;;20.90;79.90;;;;;;5046912;28;20032;-72
2021/09/09 07:29:13;;;;;;;26.30;12.32;;;20.90;80.00;;;;;;5047884;28;20087;-71
2021/09/09 07:31:41;;;;;;;27.67;15.68;;;20.90;79.90;;;;;;5034813;28;20049;-74
2021/09/09 07:34:06;;;;;;;27.40;16.77;;;21.00;80.00;;;;;;5035180;28;20531;-71
2021/09/09 07:36:32;;;;;;;28.02;16.60;;;21.00;79.90;;;;;;5034807;28;20029;-70
2021/09/09 07:38:57;;;;;;;35.92;17.08;;;21.10;79.80;;;;;;5031676;28;20045;-71
2021/09/09 07:41:23;;;;;;;38.67;16.63;;;21.10;79.90;;;;;;5035494;28;20416;-71
2021/09/09 07:43:49;;;;;;;26.67;16.38;;;21.10;79.90;;;;;;5035604;28;20037;-71
2021/09/09 07:46:14;;;;;;;33.03;13.95;;;21.20;80.20;;;;;;5034801;28;20566;-71
2021/09/09 07:48:40;;;;;;;22.70;13.55;;;21.20;80.00;;;;;;5040296;28;20041;-71
2021/09/09 07:51:05;;;;;;;23.52;14.40;;;21.20;80.20;;;;;;5037162;28;20443;-71
2021/09/09 07:53:31;;;;;;;22.38;14.40;;;21.30;80.00;;;;;;5035267;28;20458;-71
2021/09/09 07:55:57;;;;;;;24.20;12.38;;;21.30;79.80;;;;;;5036076;28;20037;-71
2021/09/09 07:58:22;;;;;;;22.83;14.50;;;21.30;79.70;;;;;;5041322;28;20026;-71
2021/09/09 08:00:48;;;;;;;20.70;13.85;;;21.40;79.90;;;;;;5035891;28;20045;-71
2021/09/09 08:03:14;;;;;;;23.48;12.98;;;21.40;80.20;;;;;;5035909;28;20080;-71
2021/09/09 08:05:39;;;;;;;27.60;14.52;;;21.40;79.80;;;;;;5043817;28;20022;-71
2021/09/09 08:08:06;;;;;;;19.58;12.65;;;21.50;80.00;;;;;;5046055;28;20036;-71
2021/09/09 08:10:32;;;;;;;23.85;11.85;;;21.50;79.70;;;;;;5046200;28;20029;-71
2021/09/09 08:12:58;;;;;;;18.63;12.00;;;21.50;79.40;;;;;;5032889;28;20032;-70
2021/09/09 08:15:23;;;;;;;20.15;13.65;;;21.50;79.20;;;;;;5037392;28;20384;-71
2021/09/09 08:17:49;;;;;;;20.85;12.13;;;21.50;79.20;;;;;;5051341;28;20036;-71
2021/09/09 08:20:15;;;;;;;14.57;8.63;;;21.60;79.70;;;;;;5049678;28;20029;-71
2021/09/09 08:22:42;;;;;;;23.65;14.52;;;21.60;79.00;;;;;;5033764;28;20576;-71
2021/09/09 08:25:09;;;;;;;24.50;12.90;;;21.70;79.30;;;;;;5034217;28;20476;-71
2021/09/09 08:27:35;;;;;;;19.58;12.05;;;21.70;79.20;;;;;;5032013;28;20079;-71
2021/09/09 08:30:02;;;;;;;25.70;13.13;;;21.70;79.20;;;;;;5034262;28;20042;-71
2021/09/09 08:32:28;;;;;;;21.52;14.02;;;21.70;79.10;;;;;;5035038;28;20052;-71
2021/09/09 08:34:55;;;;;;;25.05;13.23;;;21.70;79.30;;;;;;5042859;28;20477;-71
2021/09/09 08:37:22;;;;;;;21.70;12.80;;;21.80;79.20;;;;;;5033371;28;20481;-71
2021/09/09 08:39:48;;;;;;;26.83;13.65;;;21.90;79.20;;;;;;5038378;28;20116;-71
2021/09/09 08:42:14;;;;;;;28.00;14.93;;;21.90;79.40;;;;;;5050967;28;20112;-71
2021/09/09 08:44:41;;;;;;;24.15;14.77;;;21.90;79.60;;;;;;5035470;28;20021;-71
2021/09/09 08:47:10;;;;;;;22.02;13.98;;;22.00;79.70;;;;;;5044196;28;20061;-71
2021/09/09 08:49:36;;;;;;;20.95;14.13;;;22.10;79.90;;;;;;5032730;28;20397;-71
2021/09/09 08:52:04;;;;;;;24.10;14.23;;;22.00;79.90;;;;;;5039299;28;20097;-71
2021/09/09 08:54:30;;;;;;;23.75;13.55;;;22.00;79.90;;;;;;5042919;28;20029;-71
2021/09/09 08:56:57;;;;;;;22.50;13.15;;;22.10;79.70;;;;;;5047455;28;20029;-71
2021/09/09 08:59:23;;;;;;;32.17;13.95;;;22.10;80.00;;;;;;5046732;28;20029;-71
2021/09/09 09:01:59;;;;;;;23.70;13.63;;;22.20;80.20;;;;;;5033800;28;20043;-71
2021/09/09 09:04:25;;;;;;;23.42;13.25;;;22.30;80.10;;;;;;5032246;28;20037;-71
2021/09/09 09:06:50;;;;;;;22.60;13.43;;;22.30;79.60;;;;;;5033221;28;20492;-71
2021/09/09 09:09:19;;;;;;;23.00;14.40;;;22.30;79.20;;;;;;5041093;28;20032;-71
2021/09/09 09:11:46;;;;;;;24.83;14.55;;;22.40;79.60;;;;;;5047585;28;20051;-70
2021/09/09 09:14:16;;;;;;;24.02;13.23;;;22.50;79.90;;;;;;5044840;28;20034;-70
2021/09/09 09:16:46;;;;;;;24.60;14.25;;;22.50;79.60;;;;;;5032769;28;20048;-74
2021/09/09 09:19:14;;;;;;;26.27;14.15;;;22.60;79.80;;;;;;5038043;28;20112;-71
2021/09/09 09:21:46;;;;;;;26.92;13.80;;;22.60;79.40;;;;;;5041116;28;20026;-71
2021/09/09 09:24:18;;;;;;;26.73;14.70;;;22.70;79.10;;;;;;5040009;28;20040;-71
2021/09/09 09:27:03;;;;;;;25.02;13.25;;;22.70;79.70;;;;;;5047753;28;20423;-70
2021/09/09 09:29:28;;;;;;;27.35;14.80;;;22.80;79.10;;;;;;5045548;28;20095;-72
2021/09/09 09:32:07;;;;;;;23.75;14.00;;;22.80;79.10;;;;;;5034777;28;20037;-72
2021/09/09 09:34:33;;;;;;;23.30;14.20;;;22.90;78.70;;;;;;5033605;28;20037;-72
2021/09/09 09:36:58;;;;;;;27.25;15.77;;;22.90;78.50;;;;;;5035790;28;20435;-72
2021/09/09 09:39:24;;;;;;;22.00;12.40;;;23.00;78.70;;;;;;5040975;28;20029;-73
2021/09/09 09:42:00;;;;;;;25.30;13.57;;;23.00;78.20;;;;;;5032748;28;20048;-73
2021/09/09 09:44:35;;;;;;;24.50;12.50;;;23.00;78.20;;;;;;5031356;28;20076;-73
2021/09/09 09:47:08;;;;;;;24.38;13.57;;;23.10;78.00;;;;;;5036311;28;20537;-73
2021/09/09 09:49:34;;;;;;;22.27;13.52;;;23.20;78.80;;;;;;5034410;28;20038;-73
2021/09/09 09:52:02;;;;;;;23.27;12.70;;;23.20;78.40;;;;;;5031859;28;20033;-73
2021/09/09 09:54:29;;;;;;;20.35;12.82;;;23.30;78.40;;;;;;5035808;28;20108;-73
2021/09/09 09:56:56;;;;;;;29.10;12.93;;;23.30;77.60;;;;;;5033683;28;20044;-73
2021/09/09 09:59:22;;;;;;;23.23;12.32;;;23.40;77.90;;;;;;5035053;28;20029;-74
2021/09/09 10:01:49;;;;;;;28.05;13.30;;;23.40;77.70;;;;;;5034090;28;20033;-74
2021/09/09 10:04:17;;;;;;;20.92;13.63;;;23.50;77.40;;;;;;5035904;28;20053;-73
2021/09/09 10:06:44;;;;;;;23.85;13.50;;;23.60;77.40;;;;;;5031097;28;20033;-74
2021/09/09 10:09:11;;;;;;;21.40;13.48;;;23.60;77.70;;;;;;5032872;28;20033;-74
2021/09/09 10:11:37;;;;;;;20.92;13.18;;;23.70;76.70;;;;;;5031663;28;20431;-74
2021/09/09 10:14:05;;;;;;;23.33;13.18;;;23.70;76.40;;;;;;5031954;28;20085;-74
2021/09/09 10:16:35;;;;;;;20.30;13.02;;;23.80;76.30;;;;;;5035075;28;20436;-74
2021/09/09 10:19:00;;;;;;;23.58;13.65;;;23.80;76.20;;;;;;5037962;28;20076;-74
2021/09/09 10:21:39;;;;;;;24.55;13.00;;;23.90;75.90;;;;;;5036674;28;20061;-74
2021/09/09 10:24:31;;;;;;;24.15;13.00;;;23.90;76.00;;;;;;5035066;28;20063;-74
2021/09/09 10:27:18;;;;;;;21.00;12.68;;;23.90;75.80;;;;;;5039899;28;20037;-74
2021/09/09 10:29:45;;;;;;;23.20;12.88;;;24.00;75.70;;;;;;5035456;28;20523;-74
2021/09/09 10:32:29;;;;;;;26.95;14.68;;;24.00;76.30;;;;;;5037446;28;20217;-74
2021/09/09 10:35:31;;;;;;;28.67;17.63;;;24.10;75.90;;;;;;5040920;28;20022;-74
2021/09/09 10:38:12;;;;;;;24.92;14.95;;;24.10;75.70;;;;;;5036766;28;20041;-73
2021/09/09 10:40:43;;;;;;;32.25;18.15;;;24.20;75.00;;;;;;5036119;28;20025;-74
2021/09/09 10:43:24;;;;;;;37.75;20.13;;;24.20;74.40;;;;;;5041496;28;20082;-74
2021/09/09 10:45:58;;;;;;;30.40;15.27;;;24.30;74.70;;;;;;5050055;28;20025;-73
2021/09/09 10:48:24;;;;;;;26.15;15.85;;;24.30;74.20;;;;;;5038097;28;20048;-72
2021/09/09 10:51:01;;;;;;;30.60;14.20;;;24.30;74.50;;;;;;5041397;28;20047;-72
2021/09/09 10:53:34;;;;;;;20.92;11.68;;;24.40;74.30;;;;;;5035245;28;20045;-72
2021/09/09 10:56:16;;;;;;;17.90;10.43;;;24.40;74.00;;;;;;5034962;28;20454;-70
2021/09/09 10:58:43;;;;;;;19.35;10.88;;;24.50;73.40;;;;;;5037581;28;20086;-70
2021/09/09 11:01:10;;;;;;;20.27;10.48;;;24.50;72.60;;;;;;5038895;28;20075;-70
2021/09/09 11:03:42;;;;;;;23.90;11.82;;;24.60;72.60;;;;;;5036505;28;20100;-70
2021/09/09 11:06:14;;;;;;;21.10;11.88;;;24.60;72.60;;;;;;5034676;28;20038;-70
2021/09/09 11:08:42;;;;;;;14.73;7.90;;;24.70;72.40;;;;;;5037563;28;20449;-70
2021/09/09 11:11:35;;;;;;;19.02;9.80;;;24.70;72.20;;;;;;5034684;28;20050;-70
2021/09/09 11:14:02;;;;;;;24.17;9.85;;;24.70;71.90;;;;;;5035966;28;20041;-70
2021/09/09 11:16:36;;;;;;;17.42;9.98;;;24.80;72.40;;;;;;5044395;28;20042;-70
2021/09/09 11:19:04;;;;;;;17.63;9.38;;;24.90;70.70;;;;;;5033943;28;20033;-70
2021/09/09 11:21:38;;;;;;;18.55;10.48;;;24.90;71.40;;;;;;5036332;28;20026;-70
2021/09/09 11:24:08;;;;;;;19.38;10.25;;;25.00;70.80;;;;;;5037324;28;20037;-71
2021/09/09 11:26:35;;;;;;;15.50;8.90;;;25.00;70.20;;;;;;5042627;28;20025;-70
2021/09/09 11:29:02;;;;;;;13.75;8.60;;;25.00;70.20;;;;;;5032796;28;20037;-71
2021/09/09 11:31:29;;;;;;;11.30;7.65;;;25.10;70.70;;;;;;5037800;28;20037;-70
2021/09/09 11:34:04;;;;;;;15.90;8.98;;;25.10;69.60;;;;;;5035384;28;20025;-72
2021/09/09 11:36:35;;;;;;;18.33;8.18;;;25.20;69.20;;;;;;5037144;28;20033;-70
2021/09/09 11:39:05;;;;;;;12.82;8.13;;;25.30;68.00;;;;;;5039793;28;20043;-70
2021/09/09 11:41:32;;;;;;;13.95;8.05;;;25.30;68.70;;;;;;5038773;28;20024;-70
2021/09/09 11:44:01;;;;;;;15.05;8.85;;;25.40;69.30;;;;;;5034026;28;20034;-71
2021/09/09 11:46:36;;;;;;;16.05;7.90;;;25.40;68.20;;;;;;5044021;28;20033;-71
2021/09/09 11:49:06;;;;;;;14.73;8.57;;;25.40;67.70;;;;;;5034712;28;20519;-72
2021/09/09 11:51:35;;;;;;;14.77;8.77;;;25.50;67.90;;;;;;5034776;28;20143;-72
2021/09/09 11:54:01;;;;;;;13.93;8.18;;;25.60;68.30;;;;;;5046875;28;20036;-72
2021/09/09 11:56:27;;;;;;;13.10;7.82;;;25.60;68.10;;;;;;5039124;28;20040;-72
2021/09/09 11:58:52;;;;;;;11.38;7.28;;;25.70;67.60;;;;;;5034504;28;20038;-71
2021/09/09 12:01:19;;;;;;;13.63;7.88;;;25.70;67.70;;;;;;5050676;28;20028;-71
2021/09/09 12:03:45;;;;;;;13.63;8.30;;;25.80;68.00;;;;;;5036762;28;20057;-70
2021/09/09 12:06:14;;;;;;;12.80;8.23;;;25.80;66.70;;;;;;5040637;28;20116;-71
2021/09/09 12:08:39;;;;;;;15.43;8.50;;;25.90;66.80;;;;;;5038108;28;20025;-71
2021/09/09 12:11:11;;;;;;;11.80;6.90;;;25.90;66.20;;;;;;5042383;28;20379;-72
2021/09/09 12:13:39;;;;;;;20.77;7.90;;;26.00;66.50;;;;;;5042394;28;20449;-73
2021/09/09 12:16:18;;;;;;;13.57;8.43;;;26.00;66.50;;;;;;5038407;28;20034;-72
2021/09/09 12:18:45;;;;;;;12.23;6.70;;;26.00;65.50;;;;;;5034546;28;20030;-69
2021/09/09 12:21:17;;;;;;;10.93;5.95;;;26.10;65.70;;;;;;5037939;28;20730;-70
2021/09/09 12:24:05;;;;;;;12.43;6.18;;;26.10;67.80;;;;;;5033889;28;20120;-69
2021/09/09 12:26:35;;;;;;;12.50;6.63;;;26.10;68.10;;;;;;5044739;28;20060;-72
2021/09/09 12:29:18;;;;;;;14.63;6.65;;;26.10;68.50;;;;;;5041833;28;20540;-72
2021/09/09 12:31:45;;;;;;;10.93;6.78;;;26.20;68.00;;;;;;5045299;28;20045;-72
2021/09/09 12:34:13;;;;;;;13.80;6.32;;;26.20;67.00;;;;;;5033906;28;20037;-72